createdAt,value
2019-01-20T00:00:27.362Z,0
2019-01-20T00:01:37.493Z,0
2019-01-20T00:02:47.664Z,0
2019-01-20T00:03:57.840Z,0
2019-01-20T00:05:08.007Z,0
2019-01-20T00:06:18.181Z,0
2019-01-20T00:07:28.351Z,0
2019-01-20T00:08:38.491Z,0
2019-01-20T00:09:48.633Z,0
2019-01-20T00:10:58.765Z,0
2019-01-20T00:12:08.659Z,0
2019-01-20T00:13:18.800Z,0
2019-01-20T00:14:28.941Z,0
2019-01-20T00:15:39.081Z,0
2019-01-20T00:16:49.234Z,0
2019-01-20T00:17:59.405Z,0
2019-01-20T00:19:09.280Z,0
2019-01-20T00:20:19.796Z,0
2019-01-20T00:21:30.078Z,0
2019-01-20T00:22:40.212Z,0
2019-01-20T00:23:50.366Z,0
2019-01-20T00:25:00.581Z,0
2019-01-20T00:26:10.811Z,0
2019-01-20T00:27:20.977Z,0
2019-01-20T00:28:31.179Z,0
2019-01-20T00:29:41.327Z,0
2019-01-20T00:30:51.471Z,0
2019-01-20T00:32:01.585Z,0
2019-01-20T00:33:11.690Z,0
2019-01-20T00:34:22.222Z,0
2019-01-20T00:35:32.542Z,0
2019-01-20T00:36:42.654Z,0
2019-01-20T00:37:52.810Z,0
2019-01-20T00:39:02.944Z,0
2019-01-20T00:40:13.114Z,0
2019-01-20T00:41:29.148Z,0
2019-01-20T00:42:39.273Z,0
2019-01-20T00:43:49.408Z,0
2019-01-20T00:45:07.399Z,0
2019-01-20T00:46:17.545Z,0
2019-01-20T00:47:27.682Z,0
2019-01-20T00:48:37.850Z,0
2019-01-20T00:49:47.988Z,0
2019-01-20T00:50:58.111Z,0
2019-01-20T00:52:09.584Z,0
2019-01-20T00:53:19.427Z,0
2019-01-20T00:54:29.290Z,0
2019-01-20T00:55:39.423Z,0
2019-01-20T00:56:49.541Z,0
2019-01-20T00:57:59.693Z,0
2019-01-20T00:59:09.805Z,0
2019-01-20T01:00:19.975Z,0
2019-01-20T01:01:30.114Z,0
2019-01-20T01:02:39.972Z,0
2019-01-20T01:03:50.131Z,0
2019-01-20T01:05:00.336Z,0
2019-01-20T01:06:10.505Z,0
2019-01-20T01:07:20.639Z,0
2019-01-20T01:08:30.751Z,0
2019-01-20T01:09:40.867Z,0
2019-01-20T01:10:50.998Z,0
2019-01-20T01:12:01.110Z,0
2019-01-20T01:13:11.216Z,0
2019-01-20T01:14:21.071Z,0
2019-01-20T01:15:31.188Z,0
2019-01-20T01:16:41.322Z,0
2019-01-20T01:17:51.206Z,0
2019-01-20T01:19:01.332Z,0
2019-01-20T01:20:11.482Z,0
2019-01-20T01:21:21.636Z,0
2019-01-20T01:22:31.771Z,0
2019-01-20T01:23:41.889Z,0
2019-01-20T01:24:52.011Z,0
2019-01-20T01:26:02.159Z,0
2019-01-20T01:27:12.270Z,0
2019-01-20T01:28:22.397Z,0
2019-01-20T01:29:32.534Z,0
2019-01-20T01:30:42.641Z,0
2019-01-20T01:31:52.741Z,0
2019-01-20T01:33:02.851Z,0
2019-01-20T01:34:12.996Z,0
2019-01-20T01:35:23.154Z,0
2019-01-20T01:36:33.251Z,0
2019-01-20T01:37:43.096Z,0
2019-01-20T01:38:53.208Z,0
2019-01-20T01:40:03.349Z,0
2019-01-20T01:41:13.449Z,0
2019-01-20T01:42:23.585Z,0
2019-01-20T01:43:33.706Z,0
2019-01-20T01:44:43.812Z,0
2019-01-20T01:45:53.971Z,0
2019-01-20T01:47:04.081Z,0
2019-01-20T01:48:14.192Z,0
2019-01-20T01:49:24.293Z,0
2019-01-20T01:50:34.411Z,0
2019-01-20T01:51:44.542Z,0
2019-01-20T01:52:54.696Z,0
2019-01-20T01:54:05.056Z,0
2019-01-20T01:55:14.683Z,0
2019-01-20T01:56:24.802Z,0
2019-01-20T01:57:34.904Z,0
2019-01-20T01:58:45.009Z,0
2019-01-20T01:59:55.132Z,0
2019-01-20T02:01:05.263Z,0
2019-01-20T02:02:14.756Z,0
2019-01-20T02:03:24.867Z,0
2019-01-20T02:04:34.973Z,0
2019-01-20T02:05:45.074Z,0
2019-01-20T02:06:55.174Z,0
2019-01-20T02:08:05.037Z,0
2019-01-20T02:09:15.163Z,0
2019-01-20T02:10:25.274Z,0
2019-01-20T02:11:35.411Z,0
2019-01-20T02:12:45.532Z,0
2019-01-20T02:13:55.632Z,0
2019-01-20T02:15:05.807Z,0
2019-01-20T02:16:15.918Z,0
2019-01-20T02:17:26.028Z,0
2019-01-20T02:18:36.178Z,0
2019-01-20T02:19:46.304Z,0
2019-01-20T02:20:56.422Z,0
2019-01-20T02:22:06.539Z,0
2019-01-20T02:23:16.665Z,0
2019-01-20T02:24:26.779Z,0
2019-01-20T02:25:36.888Z,0
2019-01-20T02:26:46.651Z,0
2019-01-20T02:27:56.766Z,0
2019-01-20T02:29:06.870Z,0
2019-01-20T02:30:16.981Z,0
2019-01-20T02:31:27.113Z,0
2019-01-20T02:32:37.229Z,0
2019-01-20T02:33:47.348Z,0
2019-01-20T02:34:57.211Z,0
2019-01-20T02:36:07.313Z,0
2019-01-20T02:37:17.452Z,0
2019-01-20T02:38:27.599Z,0
2019-01-20T02:39:37.700Z,0
2019-01-20T02:40:47.878Z,0
2019-01-20T02:42:02.444Z,0
2019-01-20T02:43:12.653Z,0
2019-01-20T02:44:22.792Z,0
2019-01-20T02:45:32.894Z,0
2019-01-20T02:46:43.007Z,0
2019-01-20T02:47:53.120Z,0
2019-01-20T02:49:03.248Z,0
2019-01-20T02:50:13.380Z,0
2019-01-20T02:51:23.499Z,0
2019-01-20T02:52:33.632Z,0
2019-01-20T02:53:43.742Z,0
2019-01-20T02:54:53.873Z,0
2019-01-20T02:56:03.982Z,0
2019-01-20T02:57:14.111Z,0
2019-01-20T02:58:24.221Z,0
2019-01-20T02:59:34.355Z,0
2019-01-20T03:00:44.228Z,0
2019-01-20T03:01:54.350Z,0
2019-01-20T03:03:04.476Z,0
2019-01-20T03:04:14.576Z,0
2019-01-20T03:05:24.757Z,0
2019-01-20T03:06:34.864Z,0
2019-01-20T03:07:44.986Z,0
2019-01-20T03:08:55.109Z,0
2019-01-20T03:10:05.235Z,0
2019-01-20T03:11:15.364Z,0
2019-01-20T03:12:25.469Z,0
2019-01-20T03:13:35.585Z,0
2019-01-20T03:14:45.714Z,0
2019-01-20T03:15:55.836Z,0
2019-01-20T03:17:05.946Z,0
2019-01-20T03:18:16.071Z,0
2019-01-20T03:19:26.217Z,0
2019-01-20T03:20:36.347Z,0
2019-01-20T03:21:46.479Z,0
2019-01-20T03:22:56.583Z,0
2019-01-20T03:24:06.707Z,0
2019-01-20T03:25:16.833Z,0
2019-01-20T03:26:26.952Z,0
2019-01-20T03:27:37.069Z,0
2019-01-20T03:28:47.176Z,0
2019-01-20T03:29:57.269Z,0
2019-01-20T03:31:07.435Z,0
2019-01-20T03:32:17.705Z,0
2019-01-20T03:33:27.829Z,0
2019-01-20T03:34:37.940Z,0
2019-01-20T03:35:48.040Z,0
2019-01-20T03:36:58.150Z,0
2019-01-20T03:38:08.386Z,0
2019-01-20T03:39:18.503Z,0
2019-01-20T03:40:28.343Z,0
2019-01-20T03:41:38.523Z,0
2019-01-20T03:42:48.364Z,0
2019-01-20T03:43:58.510Z,0
2019-01-20T03:45:08.612Z,0
2019-01-20T03:46:18.478Z,0
2019-01-20T03:47:28.819Z,0
2019-01-20T03:48:38.716Z,0
2019-01-20T03:49:48.566Z,0
2019-01-20T03:50:58.671Z,0
2019-01-20T03:52:08.789Z,0
2019-01-20T03:53:18.894Z,0
2019-01-20T03:54:28.751Z,0
2019-01-20T03:55:38.878Z,0
2019-01-20T03:56:48.977Z,0
2019-01-20T03:57:58.847Z,0
2019-01-20T03:59:09.013Z,0
2019-01-20T04:00:19.111Z,0
2019-01-20T04:01:29.223Z,0
2019-01-20T04:02:39.332Z,0
2019-01-20T04:03:49.412Z,0
2019-01-20T04:04:59.532Z,0
2019-01-20T04:06:10.623Z,0
2019-01-20T04:07:20.788Z,0
2019-01-20T04:08:30.916Z,0
2019-01-20T04:09:41.030Z,0
2019-01-20T04:10:51.146Z,0
2019-01-20T04:12:01.250Z,0
2019-01-20T04:13:11.389Z,0
2019-01-20T04:14:21.487Z,0
2019-01-20T04:15:31.590Z,0
2019-01-20T04:16:41.753Z,0
2019-01-20T04:17:51.845Z,0
2019-01-20T04:19:01.970Z,0
2019-01-20T04:20:11.904Z,0
2019-01-20T04:21:22.012Z,0
2019-01-20T04:22:32.128Z,0
2019-01-20T04:23:42.227Z,0
2019-01-20T04:24:52.424Z,0
2019-01-20T04:26:02.525Z,0
2019-01-20T04:27:12.287Z,0
2019-01-20T04:28:22.164Z,0
2019-01-20T04:29:32.291Z,0
2019-01-20T04:30:42.143Z,0
2019-01-20T04:31:51.883Z,0
2019-01-20T04:33:01.750Z,0
2019-01-20T04:34:11.866Z,0
2019-01-20T04:35:21.990Z,0
2019-01-20T04:36:32.099Z,0
2019-01-20T04:37:42.220Z,0
2019-01-20T04:38:52.325Z,0
2019-01-20T04:40:02.628Z,0
2019-01-20T04:41:12.781Z,0
2019-01-20T04:42:31.297Z,0
2019-01-20T04:43:41.393Z,0
2019-01-20T04:44:51.492Z,0
2019-01-20T04:46:01.238Z,0
2019-01-20T04:47:11.349Z,0
2019-01-20T04:48:21.452Z,0
2019-01-20T04:49:31.555Z,0
2019-01-20T04:50:41.674Z,0
2019-01-20T04:51:51.779Z,0
2019-01-20T04:53:01.884Z,0
2019-01-20T04:54:11.742Z,0
2019-01-20T04:55:21.587Z,0
2019-01-20T04:56:31.707Z,0
2019-01-20T04:57:41.827Z,0
2019-01-20T04:58:51.923Z,0
2019-01-20T05:00:02.018Z,0
2019-01-20T05:01:12.145Z,0
2019-01-20T05:02:22.256Z,0
2019-01-20T05:03:32.372Z,0
2019-01-20T05:04:42.502Z,0
2019-01-20T05:05:52.609Z,0
2019-01-20T05:07:02.463Z,0
2019-01-20T05:08:12.566Z,0
2019-01-20T05:09:22.401Z,0
2019-01-20T05:10:32.506Z,0
2019-01-20T05:11:42.628Z,0
2019-01-20T05:12:52.732Z,0
2019-01-20T05:14:02.594Z,0
2019-01-20T05:15:12.703Z,0
2019-01-20T05:16:22.814Z,0
2019-01-20T05:17:32.917Z,0
2019-01-20T05:18:43.025Z,0
2019-01-20T05:19:53.151Z,0
2019-01-20T05:21:03.256Z,0
2019-01-20T05:22:13.370Z,0
2019-01-20T05:23:23.618Z,0
2019-01-20T05:24:33.745Z,0
2019-01-20T05:25:43.855Z,0
2019-01-20T05:26:54.022Z,0
2019-01-20T05:28:04.120Z,0
2019-01-20T05:29:14.231Z,0
2019-01-20T05:30:24.332Z,0
2019-01-20T05:31:34.080Z,0
2019-01-20T05:32:44.192Z,0
2019-01-20T05:33:54.317Z,0
2019-01-20T05:35:04.528Z,0
2019-01-20T05:36:14.279Z,0
2019-01-20T05:37:24.368Z,0
2019-01-20T05:38:34.105Z,0
2019-01-20T05:39:44.212Z,0
2019-01-20T05:40:54.314Z,0
2019-01-20T05:42:04.416Z,0
2019-01-20T05:43:14.543Z,0
2019-01-20T05:44:24.648Z,0
2019-01-20T05:45:34.746Z,0
2019-01-20T05:46:44.864Z,0
2019-01-20T05:47:54.796Z,0
2019-01-20T05:49:04.907Z,0
2019-01-20T05:50:14.767Z,0
2019-01-20T05:51:24.895Z,0
2019-01-20T05:52:34.994Z,0
2019-01-20T05:53:45.115Z,0
2019-01-20T05:54:55.209Z,0
2019-01-20T05:56:06.928Z,0
2019-01-20T05:57:17.035Z,0
2019-01-20T05:58:27.148Z,0
2019-01-20T05:59:37.264Z,0
2019-01-20T06:00:47.381Z,0
2019-01-20T06:01:57.476Z,0
2019-01-20T06:03:07.573Z,0
2019-01-20T06:04:17.673Z,0
2019-01-20T06:05:27.793Z,0
2019-01-20T06:06:38.009Z,0
2019-01-20T06:07:47.764Z,0
2019-01-20T06:08:58.912Z,0
2019-01-20T06:10:09.104Z,0
2019-01-20T06:11:18.953Z,0
2019-01-20T06:12:29.062Z,0
2019-01-20T06:13:39.160Z,0
2019-01-20T06:14:48.928Z,0
2019-01-20T06:15:59.045Z,0
2019-01-20T06:17:09.174Z,0
2019-01-20T06:18:19.930Z,0
2019-01-20T06:19:30.067Z,0
2019-01-20T06:20:40.159Z,0
2019-01-20T06:21:50.258Z,0
2019-01-20T06:22:59.996Z,0
2019-01-20T06:24:09.734Z,0
2019-01-20T06:25:19.850Z,0
2019-01-20T06:26:29.998Z,0
2019-01-20T06:27:40.100Z,0
2019-01-20T06:28:51.185Z,0
2019-01-20T06:30:01.299Z,0
2019-01-20T06:31:11.424Z,0
2019-01-20T06:32:21.530Z,0
2019-01-20T06:33:31.634Z,0
2019-01-20T06:34:41.734Z,0
2019-01-20T06:35:51.852Z,4
2019-01-20T06:37:01.999Z,0
2019-01-20T06:38:12.124Z,0
2019-01-20T06:39:22.446Z,4
2019-01-20T06:40:32.539Z,4
2019-01-20T06:41:42.637Z,4
2019-01-20T06:42:52.497Z,8
2019-01-20T06:44:09.766Z,4
2019-01-20T06:45:19.604Z,8
2019-01-20T06:46:29.692Z,8
2019-01-20T06:47:39.793Z,12
2019-01-20T06:48:49.898Z,12
2019-01-20T06:49:59.988Z,16
2019-01-20T06:51:10.144Z,20
2019-01-20T06:52:20.254Z,24
2019-01-20T06:53:31.337Z,32
2019-01-20T06:54:40.925Z,32
2019-01-20T06:55:51.050Z,36
2019-01-20T06:57:01.159Z,44
2019-01-20T06:58:11.261Z,52
2019-01-20T06:59:21.365Z,60
2019-01-20T07:00:31.505Z,68
2019-01-20T07:01:41.633Z,80
2019-01-20T07:02:51.732Z,88
2019-01-20T07:04:02.046Z,100
2019-01-20T07:05:11.903Z,116
2019-01-20T07:06:22.006Z,128
2019-01-20T07:07:32.159Z,140
2019-01-20T07:08:42.262Z,156
2019-01-20T07:09:52.380Z,172
2019-01-20T07:11:02.479Z,192
2019-01-20T07:12:12.595Z,208
2019-01-20T07:13:22.702Z,228
2019-01-20T07:14:32.810Z,252
2019-01-20T07:15:42.920Z,272
2019-01-20T07:16:53.066Z,296
2019-01-20T07:18:03.159Z,320
2019-01-20T07:19:13.291Z,344
2019-01-20T07:20:23.426Z,368
2019-01-20T07:21:33.541Z,392
2019-01-20T07:22:43.645Z,424
2019-01-20T07:23:53.753Z,452
2019-01-20T07:25:03.877Z,476
2019-01-20T07:26:13.989Z,508
2019-01-20T07:27:24.097Z,540
2019-01-20T07:28:34.225Z,568
2019-01-20T07:29:44.327Z,600
2019-01-20T07:30:54.427Z,636
2019-01-20T07:32:04.559Z,668
2019-01-20T07:33:14.419Z,700
2019-01-20T07:34:24.539Z,736
2019-01-20T07:35:35.303Z,768
2019-01-20T07:36:45.408Z,808
2019-01-20T07:37:55.533Z,840
2019-01-20T07:39:05.693Z,872
2019-01-20T07:40:15.836Z,908
2019-01-20T07:41:25.589Z,944
2019-01-20T07:42:35.705Z,980
2019-01-20T07:43:45.831Z,1016
2019-01-20T07:44:55.973Z,1048
2019-01-20T07:46:06.095Z,1088
2019-01-20T07:47:16.200Z,1124
2019-01-20T07:48:26.322Z,1160
2019-01-20T07:49:36.427Z,1204
2019-01-20T07:50:47.707Z,1244
2019-01-20T07:51:57.986Z,1288
2019-01-20T07:53:08.106Z,1332
2019-01-20T07:54:18.223Z,1376
2019-01-20T07:55:28.364Z,1416
2019-01-20T07:56:38.481Z,1460
2019-01-20T07:57:48.597Z,1516
2019-01-20T07:58:58.752Z,1568
2019-01-20T08:00:08.894Z,1616
2019-01-20T08:01:19.017Z,1660
2019-01-20T08:02:29.178Z,1716
2019-01-20T08:03:39.285Z,1780
2019-01-20T08:04:49.152Z,1840
2019-01-20T08:05:59.080Z,1912
2019-01-20T08:07:09.213Z,1988
2019-01-20T08:08:19.091Z,2052
2019-01-20T08:09:29.219Z,2144
2019-01-20T08:10:39.347Z,2200
2019-01-20T08:11:49.480Z,2252
2019-01-20T08:12:59.626Z,2292
2019-01-20T08:14:09.743Z,2376
2019-01-20T08:15:19.884Z,2360
2019-01-20T08:16:30.009Z,2392
2019-01-20T08:17:40.153Z,2464
2019-01-20T08:18:50.319Z,2500
2019-01-20T08:20:00.438Z,2560
2019-01-20T08:21:10.563Z,2580
2019-01-20T08:22:20.666Z,2592
2019-01-20T08:23:30.587Z,2612
2019-01-20T08:24:40.720Z,2656
2019-01-20T08:25:50.875Z,2732
2019-01-20T08:27:00.742Z,2820
2019-01-20T08:28:10.879Z,2920
2019-01-20T08:29:21.053Z,3008
2019-01-20T08:30:31.182Z,3120
2019-01-20T08:31:41.309Z,3220
2019-01-20T08:32:51.428Z,3372
2019-01-20T08:34:01.184Z,3516
2019-01-20T08:35:11.336Z,3580
2019-01-20T08:36:21.460Z,3752
2019-01-20T08:37:36.842Z,3824
2019-01-20T08:38:46.986Z,4012
2019-01-20T08:39:57.124Z,4368
2019-01-20T08:41:07.289Z,5324
2019-01-20T08:42:17.436Z,6988
2019-01-20T08:43:34.062Z,7704
2019-01-20T08:44:44.188Z,7852
2019-01-20T08:45:54.354Z,8220
2019-01-20T08:47:04.494Z,8652
2019-01-20T08:48:14.636Z,9160
2019-01-20T08:49:24.767Z,9652
2019-01-20T08:50:34.877Z,9948
2019-01-20T08:51:45.012Z,10148
2019-01-20T08:52:55.156Z,10540
2019-01-20T08:54:05.510Z,10540
2019-01-20T08:55:15.631Z,5992
2019-01-20T08:56:25.796Z,12000
2019-01-20T08:57:35.909Z,12192
2019-01-20T08:58:46.438Z,10748
2019-01-20T08:59:57.394Z,10556
2019-01-20T09:01:08.072Z,10792
2019-01-20T09:02:19.477Z,11140
2019-01-20T09:03:30.019Z,11456
2019-01-20T09:04:40.787Z,8828
2019-01-20T09:05:51.435Z,8200
2019-01-20T09:07:02.170Z,12224
2019-01-20T09:08:12.986Z,12352
2019-01-20T09:09:23.927Z,12576
2019-01-20T09:10:35.299Z,11256
2019-01-20T09:11:47.077Z,9752
2019-01-20T09:12:59.453Z,13248
2019-01-20T09:14:10.457Z,13696
2019-01-20T09:15:22.474Z,13920
2019-01-20T09:16:33.186Z,9192
2019-01-20T09:17:43.898Z,13760
2019-01-20T09:18:54.990Z,14528
2019-01-20T09:20:05.984Z,14752
2019-01-20T09:21:16.025Z,14944
2019-01-20T09:22:26.713Z,15008
2019-01-20T09:23:37.835Z,14368
2019-01-20T09:24:48.449Z,12320
2019-01-20T09:25:59.777Z,10364
2019-01-20T09:27:10.842Z,9580
2019-01-20T09:28:21.546Z,8680
2019-01-20T09:29:32.064Z,8300
2019-01-20T09:30:43.124Z,8228
2019-01-20T09:31:55.109Z,8460
2019-01-20T09:33:07.932Z,9024
2019-01-20T09:34:19.443Z,10440
2019-01-20T09:35:30.070Z,12896
2019-01-20T09:36:41.614Z,14272
2019-01-20T09:37:52.111Z,14432
2019-01-20T09:39:02.291Z,14208
2019-01-20T09:40:12.433Z,14048
2019-01-20T09:41:22.599Z,13856
2019-01-20T09:42:32.757Z,13888
2019-01-20T09:43:49.783Z,12704
2019-01-20T09:44:59.917Z,9056
2019-01-20T09:46:10.073Z,7020
2019-01-20T09:47:20.232Z,6948
2019-01-20T09:48:30.603Z,7304
2019-01-20T09:49:40.752Z,7832
2019-01-20T09:50:50.910Z,8508
2019-01-20T09:52:01.093Z,9292
2019-01-20T09:53:11.243Z,10296
2019-01-20T09:54:21.355Z,12324
2019-01-20T09:55:31.607Z,15040
2019-01-20T09:56:41.761Z,17664
2019-01-20T09:57:51.904Z,20000
2019-01-20T09:59:02.101Z,21952
2019-01-20T10:00:12.332Z,23040
2019-01-20T10:01:22.608Z,23328
2019-01-20T10:02:34.232Z,23456
2019-01-20T10:03:44.656Z,23584
2019-01-20T10:04:54.796Z,23680
2019-01-20T10:06:04.759Z,23744
2019-01-20T10:07:18.492Z,23904
2019-01-20T10:08:28.670Z,23968
2019-01-20T10:09:38.821Z,24288
2019-01-20T10:10:48.995Z,24224
2019-01-20T10:11:59.181Z,24384
2019-01-20T10:13:09.348Z,24448
2019-01-20T10:14:19.489Z,24544
2019-01-20T10:15:29.668Z,24960
2019-01-20T10:16:39.814Z,24960
2019-01-20T10:17:49.613Z,24960
2019-01-20T10:18:59.801Z,25344
2019-01-20T10:20:09.943Z,25216
2019-01-20T10:21:20.156Z,25600
2019-01-20T10:22:30.774Z,25632
2019-01-20T10:23:40.945Z,25824
2019-01-20T10:24:52.639Z,25888
2019-01-20T10:26:02.899Z,25984
2019-01-20T10:27:13.354Z,25824
2019-01-20T10:28:23.868Z,26208
2019-01-20T10:29:34.342Z,26240
2019-01-20T10:30:44.709Z,26240
2019-01-20T10:31:54.694Z,26304
2019-01-20T10:33:06.028Z,26592
2019-01-20T10:34:15.940Z,26528
2019-01-20T10:35:26.134Z,26688
2019-01-20T10:36:36.062Z,26720
2019-01-20T10:37:46.209Z,26752
2019-01-20T10:38:56.380Z,26816
2019-01-20T10:40:06.577Z,26976
2019-01-20T10:41:16.749Z,27168
2019-01-20T10:42:26.917Z,26880
2019-01-20T10:43:37.116Z,27104
2019-01-20T10:44:47.278Z,26848
2019-01-20T10:45:57.457Z,27360
2019-01-20T10:47:07.637Z,27296
2019-01-20T10:48:17.825Z,27296
2019-01-20T10:49:28.052Z,27328
2019-01-20T10:50:38.243Z,27296
2019-01-20T10:51:48.394Z,27456
2019-01-20T10:52:58.563Z,27360
2019-01-20T10:54:09.715Z,27392
2019-01-20T10:55:19.899Z,27328
2019-01-20T10:56:32.434Z,27520
2019-01-20T10:57:43.871Z,27552
2019-01-20T10:58:54.045Z,27424
2019-01-20T11:00:04.204Z,27744
2019-01-20T11:01:14.363Z,27552
2019-01-20T11:02:24.290Z,27936
2019-01-20T11:03:34.477Z,28000
2019-01-20T11:04:44.641Z,27552
2019-01-20T11:05:54.822Z,27680
2019-01-20T11:07:05.015Z,27616
2019-01-20T11:08:14.825Z,27680
2019-01-20T11:09:24.972Z,27712
2019-01-20T11:10:35.193Z,27616
2019-01-20T11:11:45.364Z,27520
2019-01-20T11:12:55.197Z,27776
2019-01-20T11:14:12.061Z,27648
2019-01-20T11:15:22.269Z,28640
2019-01-20T11:16:32.065Z,28352
2019-01-20T11:17:42.283Z,28448
2019-01-20T11:18:52.451Z,28384
2019-01-20T11:20:02.649Z,28192
2019-01-20T11:21:12.879Z,28320
2019-01-20T11:22:23.039Z,28000
2019-01-20T11:23:33.236Z,28256
2019-01-20T11:24:43.408Z,28192
2019-01-20T11:25:53.637Z,28416
2019-01-20T11:27:03.835Z,28448
2019-01-20T11:28:14.014Z,28480
2019-01-20T11:29:24.199Z,28384
2019-01-20T11:30:34.400Z,28736
2019-01-20T11:31:44.578Z,28768
2019-01-20T11:32:54.505Z,28448
2019-01-20T11:34:04.666Z,29344
2019-01-20T11:35:14.857Z,29120
2019-01-20T11:36:25.044Z,28864
2019-01-20T11:37:35.271Z,29600
2019-01-20T11:38:45.425Z,28864
2019-01-20T11:41:12.188Z,29056
2019-01-20T11:42:22.150Z,28800
2019-01-20T11:43:32.296Z,29056
2019-01-20T11:44:42.433Z,28832
2019-01-20T11:45:52.619Z,28448
2019-01-20T11:47:02.813Z,28320
2019-01-20T11:48:14.357Z,28448
2019-01-20T11:49:24.632Z,28864
2019-01-20T11:50:34.813Z,28832
2019-01-20T11:51:45.049Z,28128
2019-01-20T11:52:55.235Z,28352
2019-01-20T11:54:05.402Z,28224
2019-01-20T11:55:15.360Z,28096
2019-01-20T11:56:26.753Z,28192
2019-01-20T11:57:36.951Z,28480
2019-01-20T11:58:47.151Z,27264
2019-01-20T11:59:57.332Z,24384
2019-01-20T12:01:07.549Z,21344
2019-01-20T12:02:24.748Z,20992
2019-01-20T12:03:34.953Z,20832
2019-01-20T12:04:45.125Z,18784
2019-01-20T12:05:55.296Z,18528
2019-01-20T12:07:05.467Z,23616
2019-01-20T12:08:15.665Z,23872
2019-01-20T12:09:25.843Z,24512
2019-01-20T12:10:36.033Z,24384
2019-01-20T12:11:46.299Z,24288
2019-01-20T12:12:56.496Z,23744
2019-01-20T12:14:06.684Z,24288
2019-01-20T12:15:16.935Z,26624
2019-01-20T12:16:27.122Z,26432
2019-01-20T12:17:37.294Z,27040
2019-01-20T12:18:47.199Z,26912
2019-01-20T12:19:58.361Z,26816
2019-01-20T12:21:08.633Z,26752
2019-01-20T12:22:18.811Z,25952
2019-01-20T12:23:28.965Z,25856
2019-01-20T12:24:39.166Z,26176
2019-01-20T12:25:49.061Z,25312
2019-01-20T12:26:59.230Z,25536
2019-01-20T12:28:09.394Z,25472
2019-01-20T12:29:19.611Z,25248
2019-01-20T12:30:29.800Z,25760
2019-01-20T12:31:39.997Z,25312
2019-01-20T12:32:50.167Z,25216
2019-01-20T12:34:00.359Z,25184
2019-01-20T12:35:10.539Z,24864
2019-01-20T12:36:20.739Z,24032
2019-01-20T12:37:30.903Z,22752
2019-01-20T12:38:41.117Z,21088
2019-01-20T12:39:51.350Z,18336
2019-01-20T12:41:01.567Z,15584
2019-01-20T12:42:11.745Z,13248
2019-01-20T12:43:21.976Z,10948
2019-01-20T12:44:38.615Z,9376
2019-01-20T12:45:48.811Z,8876
2019-01-20T12:46:59.050Z,8212
2019-01-20T12:48:09.246Z,6908
2019-01-20T12:49:19.428Z,6264
2019-01-20T12:50:29.606Z,5952
2019-01-20T12:51:39.785Z,5508
2019-01-20T12:52:50.279Z,5260
2019-01-20T12:54:00.452Z,5204
2019-01-20T12:55:11.634Z,5156
2019-01-20T12:56:21.841Z,5312
2019-01-20T12:57:32.059Z,5492
2019-01-20T12:58:42.246Z,5592
2019-01-20T12:59:52.448Z,5672
2019-01-20T13:01:02.635Z,5760
2019-01-20T13:02:12.840Z,5740
2019-01-20T13:03:23.013Z,5680
2019-01-20T13:04:33.631Z,5576
2019-01-20T13:05:44.315Z,5508
2019-01-20T13:06:54.478Z,5432
2019-01-20T13:08:04.646Z,5388
2019-01-20T13:09:14.877Z,5352
2019-01-20T13:10:25.132Z,5280
2019-01-20T13:11:35.175Z,5224
2019-01-20T13:12:45.400Z,5192
2019-01-20T13:13:55.609Z,5168
2019-01-20T13:15:05.790Z,5124
2019-01-20T13:16:15.959Z,5060
2019-01-20T13:17:26.674Z,5004
2019-01-20T13:18:36.869Z,4928
2019-01-20T13:19:47.050Z,4804
2019-01-20T13:20:57.248Z,4768
2019-01-20T13:22:07.192Z,4716
2019-01-20T13:23:17.394Z,4624
2019-01-20T13:24:27.549Z,4556
2019-01-20T13:25:37.767Z,4512
2019-01-20T13:26:47.954Z,4444
2019-01-20T13:27:58.281Z,4384
2019-01-20T13:29:08.478Z,4320
2019-01-20T13:30:18.880Z,4276
2019-01-20T13:31:29.106Z,4204
2019-01-20T13:32:39.270Z,4176
2019-01-20T13:33:49.518Z,4136
2019-01-20T13:34:59.717Z,4080
2019-01-20T13:36:14.584Z,4052
2019-01-20T13:37:24.812Z,4028
2019-01-20T13:38:35.000Z,4004
2019-01-20T13:39:45.209Z,3960
2019-01-20T13:40:55.374Z,3916
2019-01-20T13:42:05.767Z,3872
2019-01-20T13:43:16.001Z,3844
2019-01-20T13:44:26.164Z,3816
2019-01-20T13:45:36.707Z,3776
2019-01-20T13:46:46.875Z,3736
2019-01-20T13:47:57.047Z,3708
2019-01-20T13:49:07.205Z,3672
2019-01-20T13:50:17.128Z,3632
2019-01-20T13:51:27.286Z,3600
2019-01-20T13:52:37.427Z,3568
2019-01-20T13:53:47.581Z,3536
2019-01-20T13:54:57.772Z,3492
2019-01-20T13:56:08.668Z,3448
2019-01-20T13:57:18.763Z,3416
2019-01-20T13:58:28.940Z,3380
2019-01-20T13:59:39.096Z,3344
2019-01-20T14:00:49.724Z,3304
2019-01-20T14:02:00.021Z,3276
2019-01-20T14:03:10.189Z,3240
2019-01-20T14:04:20.103Z,3208
2019-01-20T14:05:30.290Z,3176
2019-01-20T14:06:41.164Z,3152
2019-01-20T14:07:51.364Z,3124
2019-01-20T14:09:01.552Z,3104
2019-01-20T14:10:11.724Z,3076
2019-01-20T14:11:23.216Z,3040
2019-01-20T14:12:33.165Z,2996
2019-01-20T14:13:43.306Z,2952
2019-01-20T14:14:58.851Z,2916
2019-01-20T14:16:09.036Z,2888
2019-01-20T14:17:19.197Z,2860
2019-01-20T14:18:30.356Z,2828
2019-01-20T14:19:40.531Z,2796
2019-01-20T14:20:50.735Z,2760
2019-01-20T14:22:00.890Z,2728
2019-01-20T14:23:11.038Z,2684
2019-01-20T14:24:20.821Z,2640
2019-01-20T14:25:30.991Z,2596
2019-01-20T14:26:41.232Z,2560
2019-01-20T14:27:51.366Z,2516
2019-01-20T14:29:01.555Z,2468
2019-01-20T14:30:11.716Z,2424
2019-01-20T14:31:21.901Z,2372
2019-01-20T14:32:32.094Z,2328
2019-01-20T14:33:42.290Z,2288
2019-01-20T14:34:53.488Z,2248
2019-01-20T14:36:05.813Z,2204
2019-01-20T14:37:19.022Z,2152
2019-01-20T14:38:32.248Z,2100
2019-01-20T14:39:47.414Z,2056
2019-01-20T14:41:01.266Z,2016
2019-01-20T14:42:15.289Z,1976
2019-01-20T14:43:28.150Z,1940
2019-01-20T14:44:41.277Z,1900
2019-01-20T14:45:54.017Z,1860
2019-01-20T14:47:06.084Z,1816
2019-01-20T14:48:19.076Z,1772
2019-01-20T14:49:29.909Z,1732
2019-01-20T14:50:40.092Z,1684
2019-01-20T14:51:50.270Z,1640
2019-01-20T14:53:00.445Z,1596
2019-01-20T14:54:10.637Z,1556
2019-01-20T14:55:20.801Z,1516
2019-01-20T14:56:31.009Z,1472
2019-01-20T14:57:41.196Z,1432
2019-01-20T14:58:51.098Z,1388
2019-01-20T15:00:01.274Z,1344
2019-01-20T15:01:11.518Z,1300
2019-01-20T15:02:21.726Z,1252
2019-01-20T15:03:31.897Z,1208
2019-01-20T15:04:42.104Z,1164
2019-01-20T15:05:52.336Z,1124
2019-01-20T15:07:02.663Z,1080
2019-01-20T15:08:12.936Z,1040
2019-01-20T15:09:22.873Z,996
2019-01-20T15:10:33.104Z,956
2019-01-20T15:11:43.257Z,912
2019-01-20T15:12:52.949Z,876
2019-01-20T15:14:03.110Z,836
2019-01-20T15:15:16.116Z,796
2019-01-20T15:16:26.278Z,760
2019-01-20T15:17:36.477Z,724
2019-01-20T15:18:46.672Z,688
2019-01-20T15:19:56.893Z,656
2019-01-20T15:21:07.119Z,620
2019-01-20T15:22:17.778Z,588
2019-01-20T15:23:27.707Z,552
2019-01-20T15:24:38.775Z,520
2019-01-20T15:25:48.970Z,488
2019-01-20T15:26:59.194Z,460
2019-01-20T15:28:09.351Z,432
2019-01-20T15:29:19.764Z,404
2019-01-20T15:30:30.119Z,376
2019-01-20T15:31:40.290Z,344
2019-01-20T15:32:50.462Z,324
2019-01-20T15:34:00.329Z,296
2019-01-20T15:35:10.498Z,276
2019-01-20T15:36:20.768Z,252
2019-01-20T15:37:30.991Z,232
2019-01-20T15:38:41.813Z,208
2019-01-20T15:39:52.138Z,192
2019-01-20T15:41:02.325Z,172
2019-01-20T15:42:12.466Z,160
2019-01-20T15:43:22.794Z,140
2019-01-20T15:44:32.973Z,128
2019-01-20T15:45:43.148Z,112
2019-01-20T15:46:53.340Z,104
2019-01-20T15:48:04.207Z,88
2019-01-20T15:49:14.526Z,76
2019-01-20T15:50:26.039Z,64
2019-01-20T15:51:36.418Z,60
2019-01-20T15:52:46.601Z,52
2019-01-20T15:53:56.519Z,44
2019-01-20T15:55:06.721Z,40
2019-01-20T15:56:16.918Z,32
2019-01-20T15:57:27.117Z,28
2019-01-20T15:58:37.324Z,20
2019-01-20T15:59:47.285Z,20
2019-01-20T16:00:56.942Z,16
2019-01-20T16:02:07.895Z,12
2019-01-20T16:03:18.458Z,12
2019-01-20T16:04:31.508Z,12
2019-01-20T16:05:42.404Z,8
2019-01-20T16:06:53.014Z,8
2019-01-20T16:08:03.189Z,4
2019-01-20T16:09:13.657Z,8
2019-01-20T16:10:25.414Z,4
2019-01-20T16:11:38.865Z,4
2019-01-20T16:12:49.234Z,4
2019-01-20T16:14:01.423Z,0
2019-01-20T16:15:11.976Z,4
2019-01-20T16:16:22.285Z,0
2019-01-20T16:17:32.774Z,0